Time;durP1;ratioP1;P1;durP2;ratioP2;P2;SDS_P1;SDS_P2;PMS_P1;PMS_P2;Temp;Humidity;BMP_temperature;BMP_pressure;BME280_temperature;BME280_humidity;BME280_pressure;Samples;Min_cycle;Max_cycle;Signal;HPM_P1;HPM_P2
2023/10/27 00:00:33;;;;;;;;;;;;;;;14.54;78.00;98725.59;3171649;28;19977;-72
2023/10/27 00:02:06;;;;;;;;;;;;;;;14.53;78.13;98730.00;3171891;28;20368;-72
2023/10/27 00:03:38;;;;;;;;;;;;;;;14.53;77.91;98730.00;3167254;28;19923;-72
2023/10/27 00:05:08;;;;;;;;;;;;;;;14.53;77.90;98723.94;3164210;28;19920;-72
2023/10/27 00:06:40;;;;;;;;;;;;;;;14.53;77.79;98719.53;3154766;28;20461;-72
2023/10/27 00:08:11;;;;;;;;;;;;;;;14.53;77.74;98718.69;3165852;28;19973;-72
2023/10/27 00:09:42;;;;;;;;;;;;;;;14.53;77.76;98718.69;3171157;28;19944;-72
2023/10/27 00:11:13;;;;;;;;;;;;;;;14.52;77.76;98719.63;3171657;28;20009;-71
2023/10/27 00:12:44;;;;;;;;;;;;;;;14.51;77.69;98725.81;3158509;28;19924;-73
2023/10/27 00:14:15;;;;;;;;;;;;;;;14.49;77.89;98739.03;3171079;28;20320;-73
2023/10/27 00:15:47;;;;;;;;;;;;;;;14.47;77.78;98737.50;3171748;28;19919;-72
2023/10/27 00:17:20;;;;;;;;;;;;;;;14.44;78.22;98727.25;3170525;27;20011;-73
2023/10/27 00:18:50;;;;;;;;;;;;;;;14.43;78.01;98734.25;3168643;28;19919;-73
2023/10/27 00:20:22;;;;;;;;;;;;;;;14.42;78.04;98739.63;3171416;28;20663;-72
2023/10/27 00:21:53;;;;;;;;;;;;;;;14.37;77.91;98734.72;3171661;28;19923;-73
2023/10/27 00:23:24;;;;;;;;;;;;;;;14.36;78.29;98738.31;3171095;28;19931;-73
2023/10/27 00:24:56;;;;;;;;;;;;;;;14.34;78.25;98735.84;3171420;28;19919;-73
2023/10/27 00:26:26;;;;;;;;;;;;;;;14.34;78.18;98727.97;3171277;28;20346;-73
2023/10/27 00:27:58;;;;;;;;;;;;;;;14.34;78.15;98727.97;3171810;28;19924;-73
2023/10/27 00:29:28;;;;;;;;;;;;;;;14.32;78.12;98721.19;3171482;28;19927;-73
2023/10/27 00:31:00;;;;;;;;;;;;;;;14.29;78.06;98716.19;3164485;28;19980;-73
2023/10/27 00:32:33;;;;;;;;;;;;;;;14.28;78.01;98728.41;3160265;28;19967;-73
2023/10/27 00:34:04;;;;;;;;;;;;;;;14.27;78.11;98731.19;3170874;28;19920;-73
2023/10/27 00:35:35;;;;;;;;;;;;;;;14.26;78.11;98738.19;3157077;28;19920;-73
2023/10/27 00:37:06;;;;;;;;;;;;;;;14.24;78.28;98727.00;3152512;28;19920;-73
2023/10/27 00:38:37;;;;;;;;;;;;;;;14.21;78.41;98731.66;3159309;28;19924;-73
2023/10/27 00:40:09;;;;;;;;;;;;;;;14.18;78.46;98737.13;3169296;28;19980;-73
2023/10/27 00:41:39;;;;;;;;;;;;;;;14.15;78.64;98738.19;3171432;28;19920;-73
2023/10/27 00:43:14;;;;;;;;;;;;;;;14.12;78.65;98743.66;3171138;28;19923;-73
2023/10/27 00:44:44;;;;;;;;;;;;;;;14.10;78.80;98742.94;3171231;28;19923;-73
2023/10/27 00:46:16;;;;;;;;;;;;;;;14.09;78.87;98746.50;3171115;28;19920;-73
2023/10/27 00:47:48;;;;;;;;;;;;;;;14.09;79.05;98743.91;3167480;28;19931;-73
2023/10/27 00:49:20;;;;;;;;;;;;;;;14.07;78.91;98745.78;3167215;28;19927;-73
2023/10/27 00:50:51;;;;;;;;;;;;;;;14.06;78.87;98747.56;3171082;28;19920;-73
2023/10/27 00:52:24;;;;;;;;;;;;;;;14.03;79.16;98742.56;3165769;28;20453;-73
2023/10/27 00:53:55;;;;;;;;;;;;;;;14.03;79.24;98747.81;3162728;28;20357;-73
2023/10/27 00:55:26;;;;;;;;;;;;;;;14.01;79.50;98741.84;3170882;28;19924;-73
2023/10/27 00:56:57;;;;;;;;;;;;;;;13.99;79.54;98735.94;3167939;28;20321;-73
2023/10/27 00:58:29;;;;;;;;;;;;;;;13.97;79.55;98729.13;3159333;28;19924;-73
2023/10/27 00:59:59;;;;;;;;;;;;;;;13.97;79.49;98731.75;3169808;28;19968;-73
2023/10/27 01:01:31;;;;;;;;;;;;;;;13.97;79.34;98727.34;3166497;28;19973;-73
2023/10/27 01:03:04;;;;;;;;;;;;;;;13.98;79.42;98734.22;3171184;28;19931;-73
2023/10/27 01:04:35;;;;;;;;;;;;;;;13.99;79.46;98724.59;3164639;28;20508;-73
2023/10/27 01:06:06;;;;;;;;;;;;;;;13.98;79.49;98729.00;3168813;28;19932;-73
2023/10/27 01:07:38;;;;;;;;;;;;;;;13.97;79.27;98724.72;3164940;28;20000;-73
2023/10/27 01:09:08;;;;;;;;;;;;;;;13.99;79.40;98724.59;3157311;28;19967;-73
2023/10/27 01:10:40;;;;;;;;;;;;;;;14.01;79.34;98728.75;3164479;28;20273;-73
2023/10/27 01:12:11;;;;;;;;;;;;;;;14.03;79.29;98733.91;3162956;28;20359;-73
2023/10/27 01:13:42;;;;;;;;;;;;;;;14.04;79.10;98739.00;3165938;28;19924;-73
2023/10/27 01:15:13;;;;;;;;;;;;;;;14.05;79.23;98729.34;3170613;28;19927;-72
2023/10/27 01:16:44;;;;;;;;;;;;;;;14.05;79.14;98734.59;3166642;28;19924;-73
2023/10/27 01:18:17;;;;;;;;;;;;;;;14.04;79.15;98725.09;3171145;28;20021;-73
2023/10/27 01:19:48;;;;;;;;;;;;;;;14.05;79.17;98726.75;3170936;28;19920;-73
2023/10/27 01:21:19;;;;;;;;;;;;;;;14.02;79.50;98719.97;3170554;27;19942;-73
2023/10/27 01:22:51;;;;;;;;;;;;;;;14.00;79.54;98721.88;3170677;28;19927;-73
2023/10/27 01:24:23;;;;;;;;;;;;;;;14.00;79.43;98729.72;3169798;28;19923;-73
2023/10/27 01:25:54;;;;;;;;;;;;;;;13.98;79.57;98728.16;3171298;28;19924;-73
2023/10/27 01:27:25;;;;;;;;;;;;;;;13.96;79.77;98724.81;3161936;28;19924;-73
2023/10/27 01:28:56;;;;;;;;;;;;;;;13.95;79.77;98721.38;3169578;28;19981;-72
2023/10/27 01:30:28;;;;;;;;;;;;;;;13.94;79.79;98732.81;3167495;28;20268;-73
2023/10/27 01:31:58;;;;;;;;;;;;;;;13.93;79.93;98728.53;3150984;28;19971;-73
2023/10/27 01:33:30;;;;;;;;;;;;;;;13.92;79.80;98734.69;3163539;28;19999;-73
2023/10/27 01:35:00;;;;;;;;;;;;;;;13.93;79.80;98735.53;3170743;28;20441;-73
2023/10/27 01:36:32;;;;;;;;;;;;;;;13.93;79.73;98732.91;3170528;28;19924;-73
2023/10/27 01:38:04;;;;;;;;;;;;;;;13.92;79.89;98732.09;3159112;28;20002;-72
2023/10/27 01:39:35;;;;;;;;;;;;;;;13.93;79.69;98730.28;3159760;28;19919;-73
2023/10/27 01:41:06;;;;;;;;;;;;;;;13.92;80.01;98734.69;3162908;28;20393;-73
2023/10/27 01:42:38;;;;;;;;;;;;;;;13.89;80.17;98740.16;3170382;28;19930;-72
2023/10/27 01:44:08;;;;;;;;;;;;;;;13.86;80.06;98732.56;3170083;28;19919;-73
2023/10/27 01:45:40;;;;;;;;;;;;;;;13.84;80.27;98731.81;3165851;28;20492;-73
2023/10/27 01:47:10;;;;;;;;;;;;;;;13.83;80.46;98724.94;3170398;28;20365;-72
2023/10/27 01:48:42;;;;;;;;;;;;;;;13.83;80.29;98724.94;3165631;28;19927;-73
2023/10/27 01:50:12;;;;;;;;;;;;;;;13.85;80.02;98723.88;3170581;28;19923;-72
2023/10/27 01:51:44;;;;;;;;;;;;;;;13.84;80.15;98716.13;3170437;28;20239;-74
2023/10/27 01:53:17;;;;;;;;;;;;;;;13.83;80.32;98719.69;3170393;28;19920;-73
2023/10/27 01:54:48;;;;;;;;;;;;;;;13.82;80.26;98724.09;3170095;28;19920;-73
2023/10/27 01:56:20;;;;;;;;;;;;;;;13.83;80.08;98720.53;3169710;28;19920;-72
2023/10/27 01:57:50;;;;;;;;;;;;;;;13.83;80.00;98723.16;3162169;28;19926;-73
2023/10/27 01:59:22;;;;;;;;;;;;;;;13.83;80.10;98714.47;3161745;28;19946;-73
2023/10/27 02:00:52;;;;;;;;;;;;;;;13.83;79.81;98717.09;3165544;28;19923;-72
2023/10/27 02:02:24;;;;;;;;;;;;;;;13.83;80.06;98717.91;3170595;28;19919;-72
2023/10/27 02:03:55;;;;;;;;;;;;;;;13.82;80.11;98720.66;3169667;28;20010;-73
2023/10/27 02:05:27;;;;;;;;;;;;;;;13.81;80.23;98737.28;3162702;28;19930;-72
2023/10/27 02:06:58;;;;;;;;;;;;;;;13.77;80.20;98738.47;3170686;28;20395;-73
2023/10/27 02:08:30;;;;;;;;;;;;;;;13.74;80.45;98743.94;3156560;28;20009;-73
2023/10/27 02:10:01;;;;;;;;;;;;;;;13.71;80.53;98739.78;3157717;28;19920;-72
2023/10/27 02:11:32;;;;;;;;;;;;;;;13.71;80.32;98739.78;3168079;28;20381;-73
2023/10/27 02:13:03;;;;;;;;;;;;;;;13.72;80.36;98738.81;3159431;28;20223;-73
2023/10/27 02:14:35;;;;;;;;;;;;;;;13.74;80.51;98741.34;3166452;28;19973;-72
2023/10/27 02:16:05;;;;;;;;;;;;;;;13.76;80.37;98748.13;3170480;28;20014;-73
2023/10/27 02:17:39;;;;;;;;;;;;;;;13.76;80.22;98745.50;3145494;28;19936;-73
2023/10/27 02:19:09;;;;;;;;;;;;;;;13.78;80.11;98748.84;3169355;28;19930;-73
2023/10/27 02:20:41;;;;;;;;;;;;;;;13.80;79.87;98756.56;3170520;28;20373;-73
2023/10/27 02:22:11;;;;;;;;;;;;;;;13.81;79.93;98745.13;3170189;28;20367;-72
2023/10/27 02:23:44;;;;;;;;;;;;;;;13.83;79.67;98745.88;3160891;28;19924;-73
2023/10/27 02:25:15;;;;;;;;;;;;;;;13.83;79.79;98741.47;3165594;28;19919;-72
2023/10/27 02:26:46;;;;;;;;;;;;;;;13.82;79.68;98739.81;3167829;28;19934;-72
2023/10/27 02:28:17;;;;;;;;;;;;;;;13.83;79.58;98744.09;3163839;28;19980;-73
2023/10/27 02:29:48;;;;;;;;;;;;;;;13.83;79.72;98746.69;3164816;28;19920;-73
2023/10/27 02:31:19;;;;;;;;;;;;;;;13.83;79.76;98741.47;3164996;28;19943;-72
2023/10/27 02:32:50;;;;;;;;;;;;;;;13.84;79.41;98743.16;3161254;28;20348;-73
2023/10/27 02:34:21;;;;;;;;;;;;;;;13.84;79.55;98743.16;3169746;28;20433;-73
2023/10/27 02:35:52;;;;;;;;;;;;;;;13.86;79.37;98743.03;3170027;28;19934;-73
2023/10/27 02:37:23;;;;;;;;;;;;;;;13.87;79.43;98736.81;3169896;28;20321;-73
2023/10/27 02:38:56;;;;;;;;;;;;;;;13.88;79.21;98734.09;3165716;28;19928;-73
2023/10/27 02:40:26;;;;;;;;;;;;;;;13.90;79.39;98731.34;3146237;28;19932;-72
2023/10/27 02:41:58;;;;;;;;;;;;;;;13.92;79.20;98728.63;3158572;28;19920;-73
2023/10/27 02:43:28;;;;;;;;;;;;;;;13.93;78.98;98725.06;3166516;28;20540;-73
2023/10/27 02:45:00;;;;;;;;;;;;;;;13.93;79.25;98731.16;3167854;28;20131;-72
2023/10/27 02:46:32;;;;;;;;;;;;;;;13.94;79.09;98726.75;3170079;28;19919;-72
2023/10/27 02:48:03;;;;;;;;;;;;;;;13.95;79.06;98724.00;3170064;28;20025;-73
2023/10/27 02:49:34;;;;;;;;;;;;;;;13.96;78.86;98724.81;3165478;28;19920;-72
2023/10/27 02:51:05;;;;;;;;;;;;;;;13.97;78.83;98718.66;3169872;28;20381;-74
2023/10/27 02:52:36;;;;;;;;;;;;;;;13.99;78.85;98719.34;3170182;28;19976;-75
2023/10/27 02:54:09;;;;;;;;;;;;;;;13.98;78.79;98718.53;3169753;28;20400;-75
2023/10/27 02:55:40;;;;;;;;;;;;;;;13.98;78.83;98715.09;3170303;28;19953;-74
2023/10/27 02:57:12;;;;;;;;;;;;;;;13.97;78.94;98716.03;3167597;28;19931;-74
2023/10/27 02:58:42;;;;;;;;;;;;;;;13.95;78.57;98710.91;3162483;28;19924;-73
2023/10/27 03:00:14;;;;;;;;;;;;;;;13.95;78.80;98712.69;3169750;28;19975;-74
2023/10/27 03:01:45;;;;;;;;;;;;;;;13.95;78.88;98718.75;3170303;28;19919;-75
2023/10/27 03:03:16;;;;;;;;;;;;;;;13.96;78.89;98719.59;3169449;28;19919;-74
2023/10/27 03:04:47;;;;;;;;;;;;;;;13.97;78.63;98729.13;3162576;28;20285;-75
2023/10/27 03:06:19;;;;;;;;;;;;;;;13.96;78.76;98720.44;3170607;28;19920;-74
2023/10/27 03:07:49;;;;;;;;;;;;;;;13.94;78.94;98721.50;3169671;28;19919;-74
2023/10/27 03:09:22;;;;;;;;;;;;;;;13.92;79.03;98723.41;3159643;28;19920;-74
2023/10/27 03:10:53;;;;;;;;;;;;;;;13.88;79.29;98715.78;3154247;28;19920;-75
2023/10/27 03:12:24;;;;;;;;;;;;;;;13.88;79.09;98722.81;3155456;28;19931;-73
2023/10/27 03:13:55;;;;;;;;;;;;;;;13.87;79.05;98724.59;3166446;28;19931;-74
2023/10/27 03:15:26;;;;;;;;;;;;;;;13.88;79.10;98723.63;3169768;28;19924;-74
2023/10/27 03:16:58;;;;;;;;;;;;;;;13.89;78.98;98727.09;3170015;28;19924;-69
2023/10/27 03:18:29;;;;;;;;;;;;;;;13.88;79.10;98731.50;3170070;28;19920;-74
2023/10/27 03:20:00;;;;;;;;;;;;;;;13.88;79.13;98735.91;3166525;28;20008;-74
2023/10/27 03:21:31;;;;;;;;;;;;;;;13.84;79.16;98730.06;3169978;28;19974;-74
2023/10/27 03:23:03;;;;;;;;;;;;;;;13.81;79.23;98722.44;3168720;28;19923;-73
2023/10/27 03:24:35;;;;;;;;;;;;;;;13.81;79.20;98719.84;3162310;28;19996;-75
2023/10/27 03:26:06;;;;;;;;;;;;;;;13.82;79.38;98720.66;3172887;28;19919;-74
2023/10/27 03:27:37;;;;;;;;;;;;;;;13.84;79.14;98726.59;3166985;28;19924;-75
2023/10/27 03:29:09;;;;;;;;;;;;;;;13.86;79.00;98728.16;3172819;28;19919;-75
2023/10/27 03:30:39;;;;;;;;;;;;;;;13.89;79.16;98721.84;3172163;28;19920;-74
2023/10/27 03:32:11;;;;;;;;;;;;;;;13.91;78.90;98716.50;3160254;28;19955;-74
2023/10/27 03:33:41;;;;;;;;;;;;;;;13.92;79.04;98710.31;3170473;28;19981;-74
2023/10/27 03:35:14;;;;;;;;;;;;;;;13.94;78.73;98711.88;3162534;28;20019;-74
2023/10/27 03:36:44;;;;;;;;;;;;;;;13.96;78.77;98722.22;3168556;28;20010;-75
2023/10/27 03:38:17;;;;;;;;;;;;;;;13.98;78.87;98729.00;3172274;28;19920;-73
2023/10/27 03:39:49;;;;;;;;;;;;;;;13.99;78.82;98730.69;3160264;28;20313;-73
2023/10/27 03:41:21;;;;;;;;;;;;;;;14.00;78.40;98724.50;3155638;28;20435;-73
2023/10/27 03:42:51;;;;;;;;;;;;;;;14.01;78.62;98726.16;3165873;28;19966;-72
2023/10/27 03:44:23;;;;;;;;;;;;;;;14.00;78.57;98724.50;3171934;28;19942;-72
2023/10/27 03:45:53;;;;;;;;;;;;;;;13.99;78.66;98728.06;3167443;28;19920;-72
2023/10/27 03:47:25;;;;;;;;;;;;;;;13.99;78.54;98730.69;3163165;28;19926;-74
2023/10/27 03:48:55;;;;;;;;;;;;;;;14.00;78.58;98727.09;3172445;28;19920;-75
2023/10/27 03:50:27;;;;;;;;;;;;;;;14.01;78.50;98726.16;3171587;28;19992;-73
2023/10/27 03:51:59;;;;;;;;;;;;;;;14.02;78.49;98729.59;3172379;28;19931;-73
2023/10/27 03:53:29;;;;;;;;;;;;;;;14.03;78.67;98734.72;3171742;28;19975;-74
2023/10/27 03:55:02;;;;;;;;;;;;;;;14.05;78.57;98727.59;3160461;28;20349;-73
2023/10/27 03:56:33;;;;;;;;;;;;;;;14.07;78.53;98724.84;3159682;28;19920;-74
2023/10/27 03:58:14;;;;;;;;;;;;;;;14.07;78.49;98724.84;3163204;28;19969;-73
2023/10/27 03:59:46;;;;;;;;;;;;;;;14.08;78.41;98716.06;3171250;28;19955;-73
2023/10/27 04:01:17;;;;;;;;;;;;;;;14.10;78.27;98712.34;3171932;28;19924;-73
2023/10/27 04:02:48;;;;;;;;;;;;;;;14.11;78.38;98708.81;3172090;28;20313;-72
2023/10/27 04:04:19;;;;;;;;;;;;;;;14.11;78.24;98718.44;3167678;28;19924;-73
2023/10/27 04:05:50;;;;;;;;;;;;;;;14.11;78.14;98723.69;3168655;28;19919;-73
2023/10/27 04:07:21;;;;;;;;;;;;;;;14.11;78.46;98718.44;3171674;28;19930;-73
2023/10/27 04:08:52;;;;;;;;;;;;;;;14.09;78.15;98717.72;3167639;28;19923;-74
2023/10/27 04:10:25;;;;;;;;;;;;;;;14.07;78.37;98719.63;3156202;28;20238;-73
2023/10/27 04:11:55;;;;;;;;;;;;;;;14.04;78.41;98717.22;3160036;28;19920;-73
2023/10/27 04:13:27;;;;;;;;;;;;;;;14.03;78.39;98719.03;3163889;28;19933;-73
2023/10/27 04:14:58;;;;;;;;;;;;;;;14.02;78.38;98716.50;3171821;28;19923;-73
2023/10/27 04:16:30;;;;;;;;;;;;;;;14.02;78.50;98716.50;3164358;28;19942;-73
2023/10/27 04:18:00;;;;;;;;;;;;;;;14.00;78.58;98713.19;3171607;28;20083;-72
2023/10/27 04:19:32;;;;;;;;;;;;;;;14.00;78.69;98705.34;3169905;28;19920;-73
2023/10/27 04:21:03;;;;;;;;;;;;;;;14.01;78.71;98707.81;3171988;28;19923;-73
2023/10/27 04:22:34;;;;;;;;;;;;;;;14.01;78.68;98712.22;3171184;28;19920;-72
2023/10/27 04:24:05;;;;;;;;;;;;;;;14.01;78.79;98710.44;3171439;28;19920;-73
2023/10/27 04:25:39;;;;;;;;;;;;;;;13.99;78.73;98707.13;3168522;28;20285;-73
2023/10/27 04:27:10;;;;;;;;;;;;;;;13.98;78.95;98702.00;3169160;28;19926;-72
2023/10/27 04:28:41;;;;;;;;;;;;;;;13.97;78.87;98705.56;3171400;28;19927;-72
2023/10/27 04:30:13;;;;;;;;;;;;;;;13.97;78.75;98708.19;3171092;28;20384;-74
2023/10/27 04:31:43;;;;;;;;;;;;;;;13.96;78.91;98709.13;3163652;28;19977;-74
2023/10/27 04:33:15;;;;;;;;;;;;;;;13.96;79.01;98707.38;3165086;28;20010;-73
2023/10/27 04:34:46;;;;;;;;;;;;;;;13.96;78.71;98707.38;3171261;28;20380;-73
2023/10/27 04:36:18;;;;;;;;;;;;;;;13.97;78.68;98706.41;3171076;28;19928;-73
2023/10/27 04:37:48;;;;;;;;;;;;;;;13.95;78.74;98707.47;3171345;28;19935;-74
2023/10/27 04:39:20;;;;;;;;;;;;;;;13.92;78.88;98697.22;3165259;28;19920;-73
2023/10/27 04:40:53;;;;;;;;;;;;;;;13.89;79.03;98693.88;3157243;28;19950;-73
2023/10/27 04:42:24;;;;;;;;;;;;;;;13.89;78.88;98685.22;3160686;28;20399;-73
2023/10/27 04:43:55;;;;;;;;;;;;;;;13.89;79.17;98682.59;3171059;28;19971;-73
2023/10/27 04:45:26;;;;;;;;;;;;;;;13.89;79.02;98682.59;3170922;28;19984;-73
2023/10/27 04:46:57;;;;;;;;;;;;;;;13.89;79.01;98683.44;3171438;28;19940;-73
2023/10/27 04:48:28;;;;;;;;;;;;;;;13.89;78.93;98688.66;3168021;28;19920;-72
2023/10/27 04:50:00;;;;;;;;;;;;;;;13.89;78.81;98695.69;3169897;28;19920;-72
2023/10/27 04:51:31;;;;;;;;;;;;;;;13.90;78.90;98692.09;3171087;28;19938;-74
2023/10/27 04:53:02;;;;;;;;;;;;;;;13.88;78.82;98692.25;3171122;28;19954;-73
2023/10/27 04:54:34;;;;;;;;;;;;;;;13.86;78.85;98701.97;3170922;28;19923;-72
2023/10/27 04:56:07;;;;;;;;;;;;;;;13.84;78.80;98708.28;3167172;28;19927;-73
2023/10/27 04:57:38;;;;;;;;;;;;;;;13.84;78.88;98710.88;3166863;28;19927;-72
2023/10/27 04:59:10;;;;;;;;;;;;;;;13.84;79.08;98711.75;3160302;28;19919;-73
2023/10/27 05:00:41;;;;;;;;;;;;;;;13.86;78.89;98709.00;3170763;28;19920;-73
2023/10/27 05:02:13;;;;;;;;;;;;;;;13.84;78.99;98701.28;3170893;28;19924;-73
2023/10/27 05:03:44;;;;;;;;;;;;;;;13.86;78.97;98704.59;3170359;28;19954;-73
2023/10/27 05:05:15;;;;;;;;;;;;;;;13.87;78.89;98706.28;3162703;28;19927;-72
2023/10/27 05:06:46;;;;;;;;;;;;;;;13.85;78.99;98705.56;3171214;28;20393;-73
2023/10/27 05:08:18;;;;;;;;;;;;;;;13.83;79.13;98706.63;3170718;28;19923;-73
2023/10/27 05:09:49;;;;;;;;;;;;;;;13.83;79.06;98707.44;3158869;28;19920;-73
2023/10/27 05:11:23;;;;;;;;;;;;;;;13.84;79.21;98710.88;3154286;28;19928;-73
2023/10/27 05:12:55;;;;;;;;;;;;;;;13.86;78.92;98709.81;3158408;28;19920;-72
2023/10/27 05:14:26;;;;;;;;;;;;;;;13.86;79.04;98706.38;3171117;28;20015;-73
2023/10/27 05:15:57;;;;;;;;;;;;;;;13.85;79.04;98713.41;3165100;28;20396;-73
2023/10/27 05:17:28;;;;;;;;;;;;;;;13.84;79.05;98711.75;3169689;28;19983;-73
2023/10/27 05:18:59;;;;;;;;;;;;;;;13.82;79.19;98710.19;3171005;28;19919;-72
2023/10/27 05:20:31;;;;;;;;;;;;;;;13.80;79.31;98707.69;3170400;28;20523;-72
2023/10/27 05:22:04;;;;;;;;;;;;;;;13.80;79.31;98709.47;3170827;28;19919;-72
2023/10/27 05:23:36;;;;;;;;;;;;;;;13.79;79.49;98705.19;3170474;28;19920;-73
2023/10/27 05:25:06;;;;;;;;;;;;;;;13.76;79.52;98711.50;3165818;28;19927;-72
2023/10/27 05:26:39;;;;;;;;;;;;;;;13.75;79.43;98709.81;3171038;28;20581;-73
2023/10/27 05:28:10;;;;;;;;;;;;;;;13.75;79.49;98709.81;3170516;28;19972;-72
2023/10/27 05:29:41;;;;;;;;;;;;;;;13.76;79.55;98713.28;3170730;27;20315;-74
2023/10/27 05:31:12;;;;;;;;;;;;;;;13.77;79.55;98725.41;3167130;28;19923;-72
2023/10/27 05:32:43;;;;;;;;;;;;;;;13.75;79.21;98728.13;3160519;28;20587;-73
2023/10/27 05:34:15;;;;;;;;;;;;;;;13.70;79.58;98726.81;3170369;28;19920;-72
2023/10/27 05:35:47;;;;;;;;;;;;;;;13.66;79.64;98720.97;3171025;28;19927;-73
2023/10/27 05:37:19;;;;;;;;;;;;;;;13.64;79.65;98726.31;3170113;28;19924;-73
2023/10/27 05:38:50;;;;;;;;;;;;;;;13.69;79.57;98725.97;3165133;28;20069;-72
2023/10/27 05:40:21;;;;;;;;;;;;;;;13.74;79.61;98723.03;3153844;28;20329;-72
2023/10/27 05:41:54;;;;;;;;;;;;;;;13.80;79.59;98722.56;3158191;28;19920;-74
2023/10/27 05:43:25;;;;;;;;;;;;;;;13.86;79.52;98720.28;3168503;28;19919;-73
2023/10/27 05:44:56;;;;;;;;;;;;;;;13.94;79.07;98738.03;3169747;28;20003;-73
2023/10/27 05:46:28;;;;;;;;;;;;;;;14.01;79.25;98738.41;3170603;28;19935;-73
2023/10/27 05:48:00;;;;;;;;;;;;;;;14.08;78.81;98740.44;3170074;28;19919;-72
2023/10/27 05:49:30;;;;;;;;;;;;;;;14.19;78.92;98734.38;3165161;28;19930;-73
2023/10/27 05:51:03;;;;;;;;;;;;;;;14.30;78.60;98738.78;3170195;28;20670;-73
2023/10/27 05:52:33;;;;;;;;;;;;;;;14.39;78.21;98727.59;3170129;28;19942;-72
2023/10/27 05:54:06;;;;;;;;;;;;;;;14.50;77.96;98732.00;3165410;28;19920;-73
2023/10/27 05:55:36;;;;;;;;;;;;;;;14.58;77.59;98742.72;3170462;28;20014;-73
2023/10/27 05:57:09;;;;;;;;;;;;;;;14.64;77.59;98739.66;3166169;28;19928;-69
2023/10/27 05:58:41;;;;;;;;;;;;;;;14.70;77.24;98736.56;3156628;28;20405;-71
2023/10/27 06:00:11;;;;;;;;;;;;;;;14.76;77.14;98735.22;3170511;28;19927;-73
2023/10/27 06:01:43;;;;;;;;;;;;;;;14.80;77.11;98731.41;3170277;27;19923;-73
2023/10/27 06:03:13;;;;;;;;;;;;;;;14.85;76.89;98738.88;3170300;28;20230;-72
2023/10/27 06:04:45;;;;;;;;;;;;;;;14.87;76.82;98740.44;3162367;28;19930;-72
2023/10/27 06:06:15;;;;;;;;;;;;;;;14.94;76.74;98738.19;3169145;28;19920;-71
2023/10/27 06:07:47;;;;;;;;;;;;;;;14.99;76.66;98728.13;3168334;28;20523;-72
2023/10/27 06:09:18;;;;;;;;;;;;;;;15.06;76.46;98723.25;3158367;28;19930;-72
2023/10/27 06:10:49;;;;;;;;;;;;;;;15.14;76.34;98723.44;3162934;28;20515;-72
2023/10/27 06:12:21;;;;;;;;;;;;;;;15.31;76.22;98716.81;3158661;28;20329;-72
2023/10/27 06:13:54;;;;;;;;;;;;;;;15.51;75.88;98705.53;3165039;28;20034;-72
2023/10/27 06:15:25;;;;;;;;;;;;;;;15.69;75.57;98711.88;3169983;28;19919;-72
2023/10/27 06:16:57;;;;;;;;;;;;;;;15.89;75.24;98712.03;3169982;28;19919;-73
2023/10/27 06:18:27;;;;;;;;;;;;;;;16.11;74.56;98716.28;3169807;28;19977;-72
2023/10/27 06:20:01;;;;;;;;;;;;;;;16.28;73.87;98718.28;3170285;28;20003;-72
2023/10/27 06:21:31;;;;;;;;;;;;;;;16.43;73.64;98718.75;3169751;28;19919;-72
2023/10/27 06:23:03;;;;;;;;;;;;;;;16.55;72.89;98717.69;3165634;28;19923;-73
2023/10/27 06:24:34;;;;;;;;;;;;;;;16.63;72.65;98717.03;3170334;28;19920;-73
2023/10/27 06:26:05;;;;;;;;;;;;;;;16.74;72.41;98723.97;3170653;28;19931;-73
2023/10/27 06:27:37;;;;;;;;;;;;;;;16.99;72.01;98720.03;3170555;28;19981;-73
2023/10/27 06:29:09;;;;;;;;;;;;;;;17.19;71.27;98721.72;3169967;28;20109;-73
2023/10/27 06:30:40;;;;;;;;;;;;;;;17.35;70.99;98731.69;3170257;28;19920;-73
2023/10/27 06:32:11;;;;;;;;;;;;;;;17.54;70.43;98724.75;3157948;28;19931;-73
2023/10/27 06:33:43;;;;;;;;;;;;;;;17.64;70.09;98725.59;3168573;28;19924;-73
2023/10/27 06:35:14;;;;;;;;;;;;;;;17.67;69.46;98725.31;3169969;28;20003;-73
2023/10/27 06:36:45;;;;;;;;;;;;;;;17.85;69.48;98726.28;3169723;28;19930;-73
2023/10/27 06:38:16;;;;;;;;;;;;;;;18.16;68.71;98731.31;3165586;28;19920;-72
2023/10/27 06:39:47;;;;;;;;;;;;;;;18.42;67.88;98724.44;3159159;28;19924;-73
2023/10/27 06:41:18;;;;;;;;;;;;;;;18.63;67.22;98721.59;3152788;28;19934;-73
2023/10/27 06:42:50;;;;;;;;;;;;;;;18.84;66.98;98725.78;3163204;28;19923;-73
2023/10/27 06:44:22;;;;;;;;;;;;;;;19.12;66.91;98726.56;3169544;28;19919;-73
2023/10/27 06:45:53;;;;;;;;;;;;;;;19.50;66.15;98716.69;3169652;28;19924;-73
2023/10/27 06:47:24;;;;;;;;;;;;;;;20.11;65.12;98704.41;3166851;28;19950;-73
2023/10/27 06:48:56;;;;;;;;;;;;;;;20.82;62.71;98698.81;3159331;28;20320;-73
2023/10/27 06:50:26;;;;;;;;;;;;;;;21.29;60.95;98705.31;3169822;28;19927;-73
2023/10/27 06:51:58;;;;;;;;;;;;;;;21.74;59.31;98704.00;3164849;28;19924;-73
2023/10/27 06:53:29;;;;;;;;;;;;;;;22.29;57.82;98710.41;3169883;28;19920;-73
2023/10/27 06:55:00;;;;;;;;;;;;;;;22.87;56.14;98709.97;3169805;28;20336;-73
2023/10/27 06:56:31;;;;;;;;;;;;;;;23.42;54.13;98717.94;3168591;28;19931;-72
2023/10/27 06:58:05;;;;;;;;;;;;;;;24.11;53.58;98705.38;3162694;28;19924;-73
2023/10/27 06:59:35;;;;;;;;;;;;;;;24.75;51.62;98705.63;3166737;28;20002;-73
2023/10/27 07:01:07;;;;;;;;;;;;;;;25.00;50.04;98707.97;3172750;28;19944;-72
2023/10/27 07:02:38;;;;;;;;;;;;;;;24.70;49.30;98705.38;3172586;27;19919;-73
2023/10/27 07:04:09;;;;;;;;;;;;;;;24.20;50.21;98709.59;3169014;28;19926;-73
2023/10/27 07:05:40;;;;;;;;;;;;;;;23.64;51.23;98719.75;3165674;28;19926;-73
2023/10/27 07:07:11;;;;;;;;;;;;;;;23.06;52.75;98715.88;3167334;28;19919;-73
2023/10/27 07:08:43;;;;;;;;;;;;;;;22.45;53.97;98718.28;3167346;28;19930;-73
2023/10/27 07:10:15;;;;;;;;;;;;;;;21.95;55.24;98716.75;3158017;28;19930;-73
2023/10/27 07:11:46;;;;;;;;;;;;;;;21.55;56.47;98708.66;3165909;28;20015;-73
2023/10/27 07:13:19;;;;;;;;;;;;;;;21.30;57.45;98701.69;3171903;28;19924;-73
2023/10/27 07:14:49;;;;;;;;;;;;;;;21.30;57.60;98701.69;3172253;28;20404;-73
2023/10/27 07:16:21;;;;;;;;;;;;;;;21.33;57.70;98690.78;3172004;28;19949;-74
2023/10/27 07:17:52;;;;;;;;;;;;;;;21.39;57.79;98690.16;3168546;28;19920;-72
2023/10/27 07:19:25;;;;;;;;;;;;;;;21.43;57.98;98698.56;3172458;28;19924;-73
2023/10/27 07:20:56;;;;;;;;;;;;;;;21.28;56.98;98701.84;3169820;28;19924;-73
2023/10/27 07:22:27;;;;;;;;;;;;;;;21.29;58.06;98703.50;3170450;28;19943;-73
2023/10/27 07:23:58;;;;;;;;;;;;;;;21.52;58.37;98695.75;3172207;28;19996;-73
2023/10/27 07:25:30;;;;;;;;;;;;;;;21.99;57.94;98695.03;3172189;28;19919;-72
2023/10/27 07:27:00;;;;;;;;;;;;;;;22.44;55.36;98688.28;3171968;28;19920;-73
2023/10/27 07:28:33;;;;;;;;;;;;;;;22.67;55.67;98685.69;3172437;28;19942;-73
2023/10/27 07:30:04;;;;;;;;;;;;;;;23.07;55.08;98694.47;3171859;28;20265;-73
2023/10/27 07:31:37;;;;;;;;;;;;;;;23.38;54.42;98704.19;3171508;28;19919;-73
2023/10/27 07:33:10;;;;;;;;;;;;;;;23.50;53.21;98704.59;3171867;28;20366;-73
2023/10/27 07:34:40;;;;;;;;;;;;;;;23.44;53.36;98702.66;3172200;28;19932;-73
2023/10/27 07:36:12;;;;;;;;;;;;;;;23.40;53.76;98702.19;3167750;28;19920;-73
2023/10/27 07:37:42;;;;;;;;;;;;;;;23.50;52.70;98699.28;3172273;28;19923;-73
2023/10/27 07:39:14;;;;;;;;;;;;;;;23.45;52.23;98699.00;3167698;28;20320;-73
2023/10/27 07:40:44;;;;;;;;;;;;;;;23.30;52.42;98713.03;3154553;28;19927;-73
2023/10/27 07:42:16;;;;;;;;;;;;;;;23.00;51.90;98712.09;3148979;28;19985;-73
2023/10/27 07:43:48;;;;;;;;;;;;;;;22.61;53.02;98704.16;3172607;28;19946;-73
2023/10/27 07:45:19;;;;;;;;;;;;;;;22.33;53.46;98703.75;3172407;28;19967;-73
2023/10/27 07:46:50;;;;;;;;;;;;;;;22.11;53.51;98689.38;3172077;28;19926;-73
2023/10/27 07:48:21;;;;;;;;;;;;;;;21.80;53.91;98682.16;3169206;28;19926;-73
2023/10/27 07:49:53;;;;;;;;;;;;;;;21.44;54.47;98686.97;3169267;28;20074;-73
2023/10/27 07:51:24;;;;;;;;;;;;;;;21.17;55.38;98691.56;3169274;28;20010;-73
2023/10/27 07:52:55;;;;;;;;;;;;;;;20.93;56.13;98683.59;3171726;28;19924;-73
2023/10/27 07:54:26;;;;;;;;;;;;;;;20.75;56.32;98673.97;3171610;28;19924;-73
2023/10/27 07:55:57;;;;;;;;;;;;;;;20.68;56.80;98678.25;3172309;28;19924;-73